Amherst, VA (24521)

3:39 PM EST on February 06, 2016 (GMT -0500)
Sweet Briar College | | Change Station
CLOSE
Current Station
Personal Weather Station
Location: Sweet Briar, VA
Elevation: 800 ft
Nearby Weather Stations

Elev 800 ft 37.56 °N, 79.09 °W | Updated 55 seconds ago

Clear
Clear
41.3 °F
Feels Like 37 °F
N
6.3
Wind Variable Wind from SW
Gusts 8.5 mph

Today
High -- | Low -- °F
--% Chance of Precip.
Yesterday
High -- | Low -- °F
Precip. -- in
Pressure 30.32 in
Visibility 10.0 miles
Clouds Clear
Windchill 37 °F
Dew Point 17 °F
Humidity 36%
Rainfall 0.00 in
Snow Depth Not available.
7:15 AM 5:45 PM
Waning Crescent, 4% visible
METAR KLYH 061954Z 19008KT 180V250 10SM CLR 06/M09 A3030 RMK AO2 SLP268 T00561089
Pressure 30.32 in
Visibility 10.0 miles
Clouds Clear
Windchill 37 °F
Dew Point 17 °F
Humidity 36%
Rainfall 0.00 in
Snow Depth Not available.
7:15 AM 5:45 PM
Waning Crescent, 4% visible
METAR KLYH 061954Z 19008KT 180V250 10SM CLR 06/M09 A3030 RMK AO2 SLP268 T00561089

10-Day Weather Forecast

Almanac

Astronomy

Feb. 06, 2016 Rise Set
Actual Time
Civil Twilight
Nautical Twilight
Astronomical Twilight
Moon
Length of Visible Light
Length of Day
Tomorrow will be .
, % of the Moon is Illuminated

Today's Extremes

State Highs State Lows

Community

WunderPhotos

Upload Photos

1,891,046 photos uploaded!

WunderBlog® & News

Nearby

Air Quality

  Air Quality AQ Index Pollutant
Not available.

Snow Depth

Station Depth Elevation

Earthquake Activity

City Distance Mag. Time & Date
Minimum magnitude displayed is 2.5.

Coastal Water Temperatures

Place Temperature

Stations

Nearby Weather Stations

Station Location Temp. Windchill Dew Point Humidity Wind Precip. Elev Updated Type
                   

Watches & Warnings

There are currently no watches in effect.